• Join FlightAware (Why Join?)
  • Login
  • US Flag 
07:52PM EST


 

Airport Tracker/Info


-or-


 

Live Flight TrackerFlight Track Log ✈ ASQ5750 ✈ 24-Apr-2013 ✈ KCVG - KORD

Flight Track Log - Related Links

Times and Time Zones

All times are in EDT time to prevent confusion due to time zone crossing. See the ASQ5750 flight status page for this flight to view local times or setup timezone preferences in your user account.

Time Position Orientation Groundspeed Altitude Reporting Facility
EDT Latitude Longitude Course Direction KTS MPH feet Rate Location/Type
11:56AM 39.0500 -84.6833 345° North 168 193 1,500  Level Cincinnati TRACON
11:56AM 39.0500 -84.6833 345° North 162 186 2,000 2,160 Climbing Cincinnati TRACON
11:57AM 39.1000 -84.7333 322° Northwest 254 292 4,100 2,400 Climbing Cincinnati TRACON
11:59AM 39.1956 -84.7875 336° Northwest 286 329 8,100 2,580 Climbing Indianapolis Center
12:00PM 38.9022 -84.7764 313° West  Level FlightAware Approximate
12:00PM 39.2667 -84.8311 335° Northwest 280 322 10,800  Level Indianapolis Center
12:01PM 38.9466 -84.8385 313° West  Level FlightAware Approximate
12:01PM 39.3464 -84.8797 335° Northwest 306 352 12,500  Level Indianapolis Center
12:02PM 39.0015 -84.8783 345° North  Level FlightAware Approximate
12:02PM 39.4397 -84.9361 335° Northwest 342 394 14,100  Level Indianapolis Center
12:03PM 39.5350 -84.9933 335° Northwest 368 423 15,000 360 Climbing Indianapolis Center
12:04PM 39.6353 -85.0511 336° Northwest 388 447 14,900 -60 Descending Indianapolis Center
12:05PM 39.7472 -85.1139 337° Northwest 374 430 14,900 240 Level Indianapolis Center
12:06PM 39.8364 -85.1633 337° Northwest 354 407 15,500 1,140 Climbing Indianapolis Center
12:07PM 39.9236 -85.2125 337° Northwest 343 395 17,300 1,560 Climbing Indianapolis Center
12:08PM 40.0153 -85.2653 336° Northwest 355 409 18,800 1,260 Climbing Indianapolis Center
12:09PM 40.1106 -85.3194 337° Northwest 366 421 20,000 360 Climbing Indianapolis Center
12:11PM 40.2170 -85.3748 338° Northwest  Level FlightAware Approximate
12:11PM 40.2881 -85.4503 338° Northwest 356 410 20,000  Level Chicago Center
12:12PM 40.3678 -85.5375 320° Northwest 368 423 20,000  Level Chicago Center
12:13PM 40.4492 -85.6289 319° Northwest 381 438 20,000  Level Chicago Center
12:14PM 40.5486 -85.6972 332° Northwest 412 474 20,000  Level Chicago Center
12:15PM 40.6625 -85.7425 343° North 430 495 20,000  Level Chicago Center
12:16PM 40.7867 -85.7931 343° North 438 504 20,000  Level Chicago Center
12:17PM 40.8933 -85.8458 339° North 410 472 20,000  Level Chicago Center
12:18PM 40.9861 -85.9053 334° Northwest 379 436 20,000  Level Chicago Center
12:20PM 41.0567 -86.0150 310° West 326 375 20,000  Level Chicago Center
12:21PM 41.1161 -86.1108 309° West 334 384 20,000  Level Chicago Center
12:22PM 41.1767 -86.2067 310° West 336 387 20,000 -180 Level Chicago Center
12:23PM 41.2353 -86.3025 309° West 335 386 19,700 -1,020 Descending Chicago Center
12:24PM 41.2994 -86.3931 313° West 336 387 18,000 -1,680 Descending Chicago Center
12:25PM 41.3717 -86.4744 320° Northwest 340 391 16,300 -1,500 Descending Chicago Center
12:26PM 41.4422 -86.5514 321° Northwest 331 381 15,000 -1,260 Descending Chicago Center
12:27PM 41.5308 -86.6517 320° Northwest 347 399 13,800 -1,200 Descending Chicago Center
12:28PM 41.6058 -86.7367 320° Northwest 343 395 12,600 -900 Descending Chicago Center
12:29PM 41.6850 -86.7969 330° Northwest 348 400 12,000 -300 Descending Chicago Center
12:30PM 41.7825 -86.8103 354° North 355 409 12,000 -480 Level Chicago Center
12:31PM 41.8750 -86.8444 345° North 352 405 11,100 -900 Descending Chicago Center
12:32PM 41.9158 -86.9417 299° West 314 361 10,200 -1,020 Descending Chicago Center
12:33PM 41.9506 -87.0483 294° West 272 313 9,000 -960 Descending Chicago Center
12:34PM 41.9753 -87.1389 290° West 265 305 8,300 -840 Descending Chicago Center
12:35PM 41.9833 -87.2328 277° West 262 302 7,300 -660 Descending Chicago Center
12:36PM 41.9828 -87.3133 269° West 233 268 7,000 -180 Descending Chicago Center
12:37PM 41.9833 -87.3919 271° West 217 250 7,000  Level Chicago Center
12:38PM 41.9831 -87.4781 270° West 196 226 7,000 -540 Level Chicago Center
12:39PM 41.9833 -87.5500 270° West 177 204 6,000 -960 Descending Chicago TRACON
12:40PM 41.9833 -87.6000 270° West 164 189 5,100 -960 Descending Chicago TRACON
12:41PM 41.9833 -87.6667 270° West 166 191 4,000 -1,020 Descending Chicago TRACON
12:42PM 41.9833 -87.7333 270° West 167 192 3,100 -1,020 Descending Chicago TRACON